Voge Emma — D5GV2 — position and weather

sailwx.info

Track history (hours):
 
Tides and Currents Weather Stations Pressure Air Temp Water Temp Dewpoint Dewpoint Depression Visibility Wind Speed Wind Dir Waves Ship Positions

Voge Emma

Last reported at 2018-Jun-24 18:30 UTC. Time now 2018-Jun-24 18:55 UTC.
Position N 28°07' W 015°25'.

Length 186 m; draft 10.3 m.

Type: Cargo ship. MMSI: 636092600.

Date/timePositionNaut miles runAvg speedWind from/ knotsBaromVisibWave heightAir tempDewpointWater temp
2018-Jun-24 18:30N 28°07' W 015°25'0 0.0
2018-Jun-24 18:00N 28°07' W 015°25'0 0.0
2018-Jun-24 17:30N 28°07' W 015°25'0 0.0
2018-Jun-24 17:00N 28°07' W 015°25'0 0.0
2018-Jun-24 16:30N 28°07' W 015°25'0 0.0
2018-Jun-24 16:00N 28°07' W 015°25'0 0.2
2018-Jun-24 15:30N 28°07' W 015°24'1 2.7
2018-Jun-24 15:00N 28°07' W 015°23'3 5.2
2018-Jun-24 14:30N 28°09' W 015°21'611.3
2018-Jun-24 14:00N 28°13' W 015°16'713.4
2018-Jun-24 13:30N 28°18' W 015°11'612.9
2018-Jun-24 13:00N 28°23' W 015°07'612.7
2018-Jun-24 12:30N 28°28' W 015°02'712.8
2018-Jun-24 11:59N 28°33' W 014°57'612.8
2018-Jun-24 11:30N 28°38' W 014°52'812.7
2018-Jun-24 10:52N 28°43' W 014°46'512.8
2018-Jun-24 10:30N 28°47' W 014°43'1512.8
2018-Jun-24 09:21N 28°58' W 014°32'513.0
2018-Jun-24 08:59N 29°01' W 014°28'713.0
2018-Jun-24 08:29N 29°06' W 014°23'712.9
2018-Jun-24 07:57N 29°12' W 014°18'713.1
2018-Jun-24 07:23N 29°17' W 014°12'1613.0
2018-Jun-24 06:09N 29°29' W 013°60'212.8
2018-Jun-24 05:58N 29°31' W 013°58'  
Track history (hours):
 
Tides and Currents Weather Stations Pressure Air Temp Water Temp Dewpoint Dewpoint Depression Visibility Wind Speed Wind Dir Waves Ship Positions

Voge Emma

Last reported at 2018-Jun-24 18:30 UTC. Time now 2018-Jun-24 18:55 UTC.
Position N 28°07' W 015°25'.

Length 186 m; draft 10.3 m.

Type: Cargo ship. MMSI: 636092600.

Date/timePositionNaut miles runAvg speedWind from/ knotsBaromVisibWave heightAir tempDewpointWater temp
2018-Jun-24 18:30N 28°07' W 015°25'0 0.0
2018-Jun-24 18:00N 28°07' W 015°25'0 0.0
2018-Jun-24 17:30N 28°07' W 015°25'0 0.0
2018-Jun-24 17:00N 28°07' W 015°25'0 0.0
2018-Jun-24 16:30N 28°07' W 015°25'0 0.0
2018-Jun-24 16:00N 28°07' W 015°25'0 0.2
2018-Jun-24 15:30N 28°07' W 015°24'1 2.7
2018-Jun-24 15:00N 28°07' W 015°23'3 5.2
2018-Jun-24 14:30N 28°09' W 015°21'611.3
2018-Jun-24 14:00N 28°13' W 015°16'713.4
2018-Jun-24 13:30N 28°18' W 015°11'612.9
2018-Jun-24 13:00N 28°23' W 015°07'612.7
2018-Jun-24 12:30N 28°28' W 015°02'712.8
2018-Jun-24 11:59N 28°33' W 014°57'612.8
2018-Jun-24 11:30N 28°38' W 014°52'812.7
2018-Jun-24 10:52N 28°43' W 014°46'512.8
2018-Jun-24 10:30N 28°47' W 014°43'1512.8
2018-Jun-24 09:21N 28°58' W 014°32'513.0
2018-Jun-24 08:59N 29°01' W 014°28'713.0
2018-Jun-24 08:29N 29°06' W 014°23'712.9
2018-Jun-24 07:57N 29°12' W 014°18'713.1
2018-Jun-24 07:23N 29°17' W 014°12'1613.0
2018-Jun-24 06:09N 29°29' W 013°60'212.8
2018-Jun-24 05:58N 29°31' W 013°58'  

Dump ship's entire track history